sensor_id;sensor_type;location;lat;lon;timestamp;temperature;humidity
28773;DHT22;15925;51.222;5.678;2023-06-14T00:01:44;20.30;76.60
28773;DHT22;15925;51.222;5.678;2023-06-14T00:04:14;20.20;75.80
28773;DHT22;15925;51.222;5.678;2023-06-14T00:06:43;20.20;76.20
28773;DHT22;15925;51.222;5.678;2023-06-14T00:09:11;20.20;76.30
28773;DHT22;15925;51.222;5.678;2023-06-14T00:11:41;20.20;76.30
28773;DHT22;15925;51.222;5.678;2023-06-14T00:14:07;20.10;76.20
28773;DHT22;15925;51.222;5.678;2023-06-14T00:16:33;20.10;76.60
28773;DHT22;15925;51.222;5.678;2023-06-14T00:19:01;20.00;77.30
28773;DHT22;15925;51.222;5.678;2023-06-14T00:21:30;20.00;77.50
28773;DHT22;15925;51.222;5.678;2023-06-14T00:23:57;19.90;77.10
28773;DHT22;15925;51.222;5.678;2023-06-14T00:26:22;20.00;77.20
28773;DHT22;15925;51.222;5.678;2023-06-14T00:28:49;19.90;77.90
28773;DHT22;15925;51.222;5.678;2023-06-14T00:31:15;19.90;78.30
28773;DHT22;15925;51.222;5.678;2023-06-14T00:33:40;19.90;78.30
28773;DHT22;15925;51.222;5.678;2023-06-14T00:36:06;19.80;78.60
28773;DHT22;15925;51.222;5.678;2023-06-14T00:38:32;19.80;78.20
28773;DHT22;15925;51.222;5.678;2023-06-14T00:40:58;19.80;78.70
28773;DHT22;15925;51.222;5.678;2023-06-14T00:43:24;19.70;78.60
28773;DHT22;15925;51.222;5.678;2023-06-14T00:45:50;19.70;78.30
28773;DHT22;15925;51.222;5.678;2023-06-14T00:48:16;19.70;78.20
28773;DHT22;15925;51.222;5.678;2023-06-14T00:50:43;19.60;80.00
28773;DHT22;15925;51.222;5.678;2023-06-14T00:53:12;19.70;78.10
28773;DHT22;15925;51.222;5.678;2023-06-14T00:55:38;19.60;78.10
28773;DHT22;15925;51.222;5.678;2023-06-14T00:58:04;19.60;78.20
28773;DHT22;15925;51.222;5.678;2023-06-14T01:00:30;19.60;78.10
28773;DHT22;15925;51.222;5.678;2023-06-14T01:02:56;19.50;78.30
28773;DHT22;15925;51.222;5.678;2023-06-14T01:05:23;19.50;78.40
28773;DHT22;15925;51.222;5.678;2023-06-14T01:10:39;19.50;80.30
28773;DHT22;15925;51.222;5.678;2023-06-14T01:13:18;19.40;78.50
28773;DHT22;15925;51.222;5.678;2023-06-14T01:15:46;19.40;78.30
28773;DHT22;15925;51.222;5.678;2023-06-14T01:18:12;19.40;78.30
28773;DHT22;15925;51.222;5.678;2023-06-14T01:20:46;19.30;78.20
28773;DHT22;15925;51.222;5.678;2023-06-14T01:23:19;19.40;78.30
28773;DHT22;15925;51.222;5.678;2023-06-14T01:25:46;19.40;78.50
28773;DHT22;15925;51.222;5.678;2023-06-14T01:28:13;19.30;78.50
28773;DHT22;15925;51.222;5.678;2023-06-14T01:30:42;19.20;78.50
28773;DHT22;15925;51.222;5.678;2023-06-14T01:33:15;19.30;78.50
28773;DHT22;15925;51.222;5.678;2023-06-14T01:35:49;19.20;78.80
28773;DHT22;15925;51.222;5.678;2023-06-14T01:38:17;19.20;79.00
28773;DHT22;15925;51.222;5.678;2023-06-14T01:40:45;19.20;78.80
28773;DHT22;15925;51.222;5.678;2023-06-14T01:43:13;19.10;78.70
28773;DHT22;15925;51.222;5.678;2023-06-14T01:45:40;19.20;78.70
28773;DHT22;15925;51.222;5.678;2023-06-14T01:48:07;19.10;78.70
28773;DHT22;15925;51.222;5.678;2023-06-14T01:50:33;19.10;78.70
28773;DHT22;15925;51.222;5.678;2023-06-14T01:52:59;19.10;80.10
28773;DHT22;15925;51.222;5.678;2023-06-14T01:55:25;19.10;78.70
28773;DHT22;15925;51.222;5.678;2023-06-14T01:57:52;19.10;78.70
28773;DHT22;15925;51.222;5.678;2023-06-14T02:00:18;19.10;78.70
28773;DHT22;15925;51.222;5.678;2023-06-14T02:02:44;19.00;78.70
28773;DHT22;15925;51.222;5.678;2023-06-14T02:05:11;19.00;78.80
28773;DHT22;15925;51.222;5.678;2023-06-14T02:07:38;19.00;78.80
28773;DHT22;15925;51.222;5.678;2023-06-14T02:10:05;18.90;78.90
28773;DHT22;15925;51.222;5.678;2023-06-14T02:12:31;18.90;79.10
28773;DHT22;15925;51.222;5.678;2023-06-14T02:14:57;18.90;79.10
28773;DHT22;15925;51.222;5.678;2023-06-14T02:17:23;18.90;79.30
28773;DHT22;15925;51.222;5.678;2023-06-14T02:19:49;18.90;79.20
28773;DHT22;15925;51.222;5.678;2023-06-14T02:22:16;18.90;79.20
28773;DHT22;15925;51.222;5.678;2023-06-14T02:24:42;18.90;79.30
28773;DHT22;15925;51.222;5.678;2023-06-14T02:27:08;18.80;79.40
28773;DHT22;15925;51.222;5.678;2023-06-14T02:29:37;18.80;79.40
28773;DHT22;15925;51.222;5.678;2023-06-14T02:32:04;18.70;79.40
28773;DHT22;15925;51.222;5.678;2023-06-14T02:34:30;18.70;79.70
28773;DHT22;15925;51.222;5.678;2023-06-14T02:36:56;18.70;79.70
28773;DHT22;15925;51.222;5.678;2023-06-14T02:39:22;18.70;79.90
28773;DHT22;15925;51.222;5.678;2023-06-14T02:41:49;18.70;79.90
28773;DHT22;15925;51.222;5.678;2023-06-14T02:44:18;18.60;79.90
28773;DHT22;15925;51.222;5.678;2023-06-14T02:46:45;18.60;80.00
28773;DHT22;15925;51.222;5.678;2023-06-14T02:49:14;18.60;80.20
28773;DHT22;15925;51.222;5.678;2023-06-14T02:51:39;18.60;80.30
28773;DHT22;15925;51.222;5.678;2023-06-14T02:54:05;18.60;80.30
28773;DHT22;15925;51.222;5.678;2023-06-14T02:56:31;18.50;80.50
28773;DHT22;15925;51.222;5.678;2023-06-14T02:58:57;18.50;80.50
28773;DHT22;15925;51.222;5.678;2023-06-14T03:01:25;18.50;80.50
28773;DHT22;15925;51.222;5.678;2023-06-14T03:04:02;18.50;80.60
28773;DHT22;15925;51.222;5.678;2023-06-14T03:06:30;18.50;80.70
28773;DHT22;15925;51.222;5.678;2023-06-14T03:08:58;18.50;80.90
28773;DHT22;15925;51.222;5.678;2023-06-14T03:11:31;18.50;80.90
28773;DHT22;15925;51.222;5.678;2023-06-14T03:13:58;18.50;81.00
28773;DHT22;15925;51.222;5.678;2023-06-14T03:16:25;18.40;81.70
28773;DHT22;15925;51.222;5.678;2023-06-14T03:18:55;18.40;81.20
28773;DHT22;15925;51.222;5.678;2023-06-14T03:21:23;18.40;81.20
28773;DHT22;15925;51.222;5.678;2023-06-14T03:23:51;18.10;81.40
28773;DHT22;15925;51.222;5.678;2023-06-14T03:26:17;18.20;81.80
28773;DHT22;15925;51.222;5.678;2023-06-14T03:28:45;18.20;81.90
28773;DHT22;15925;51.222;5.678;2023-06-14T03:31:12;18.20;81.90
28773;DHT22;15925;51.222;5.678;2023-06-14T03:33:39;18.20;81.90
28773;DHT22;15925;51.222;5.678;2023-06-14T03:36:05;18.20;81.90
28773;DHT22;15925;51.222;5.678;2023-06-14T03:38:32;18.20;83.70
28773;DHT22;15925;51.222;5.678;2023-06-14T03:40:58;18.20;81.90
28773;DHT22;15925;51.222;5.678;2023-06-14T03:43:24;18.10;83.80
28773;DHT22;15925;51.222;5.678;2023-06-14T03:45:51;18.10;82.00
28773;DHT22;15925;51.222;5.678;2023-06-14T03:48:17;18.20;81.90
28773;DHT22;15925;51.222;5.678;2023-06-14T03:50:43;18.20;82.00
28773;DHT22;15925;51.222;5.678;2023-06-14T03:53:10;18.10;82.10
28773;DHT22;15925;51.222;5.678;2023-06-14T03:55:40;18.10;82.30
28773;DHT22;15925;51.222;5.678;2023-06-14T03:58:07;18.10;82.40
28773;DHT22;15925;51.222;5.678;2023-06-14T04:00:35;18.10;82.40
28773;DHT22;15925;51.222;5.678;2023-06-14T04:03:02;18.00;82.50
28773;DHT22;15925;51.222;5.678;2023-06-14T04:05:29;18.00;82.90
28773;DHT22;15925;51.222;5.678;2023-06-14T04:07:56;18.00;82.90
28773;DHT22;15925;51.222;5.678;2023-06-14T04:10:22;18.10;83.00
28773;DHT22;15925;51.222;5.678;2023-06-14T04:12:48;18.00;83.00
28773;DHT22;15925;51.222;5.678;2023-06-14T04:15:16;18.00;83.30
28773;DHT22;15925;51.222;5.678;2023-06-14T04:17:42;18.00;83.30
28773;DHT22;15925;51.222;5.678;2023-06-14T04:20:08;17.90;83.30
28773;DHT22;15925;51.222;5.678;2023-06-14T04:22:36;17.90;84.50
28773;DHT22;15925;51.222;5.678;2023-06-14T04:25:03;18.00;84.70
28773;DHT22;15925;51.222;5.678;2023-06-14T04:27:32;18.00;83.80
28773;DHT22;15925;51.222;5.678;2023-06-14T04:30:02;18.00;83.80
28773;DHT22;15925;51.222;5.678;2023-06-14T04:32:35;18.00;83.80
28773;DHT22;15925;51.222;5.678;2023-06-14T04:35:07;17.80;84.00
28773;DHT22;15925;51.222;5.678;2023-06-14T04:37:33;17.80;84.40
28773;DHT22;15925;51.222;5.678;2023-06-14T04:40:01;18.00;84.50
28773;DHT22;15925;51.222;5.678;2023-06-14T04:42:26;18.00;84.50
28773;DHT22;15925;51.222;5.678;2023-06-14T04:44:57;17.90;84.90
28773;DHT22;15925;51.222;5.678;2023-06-14T04:47:23;17.90;84.70
28773;DHT22;15925;51.222;5.678;2023-06-14T04:49:57;17.90;84.80
28773;DHT22;15925;51.222;5.678;2023-06-14T04:52:23;17.80;84.80
28773;DHT22;15925;51.222;5.678;2023-06-14T04:54:52;17.80;85.10
28773;DHT22;15925;51.222;5.678;2023-06-14T04:57:21;17.90;85.20
28773;DHT22;15925;51.222;5.678;2023-06-14T04:59:49;17.90;85.30
28773;DHT22;15925;51.222;5.678;2023-06-14T05:02:21;17.80;85.40
28773;DHT22;15925;51.222;5.678;2023-06-14T05:04:47;17.80;85.60
28773;DHT22;15925;51.222;5.678;2023-06-14T05:07:13;17.90;85.70
28773;DHT22;15925;51.222;5.678;2023-06-14T05:09:41;17.80;85.90
28773;DHT22;15925;51.222;5.678;2023-06-14T05:12:07;17.90;85.90
28773;DHT22;15925;51.222;5.678;2023-06-14T05:14:36;17.90;86.00
28773;DHT22;15925;51.222;5.678;2023-06-14T05:17:03;18.00;86.10
28773;DHT22;15925;51.222;5.678;2023-06-14T05:19:29;17.90;86.20
28773;DHT22;15925;51.222;5.678;2023-06-14T05:21:55;18.00;86.50
28773;DHT22;15925;51.222;5.678;2023-06-14T05:24:21;18.00;86.80
28773;DHT22;15925;51.222;5.678;2023-06-14T05:26:46;18.00;86.50
28773;DHT22;15925;51.222;5.678;2023-06-14T05:29:12;18.00;86.80
28773;DHT22;15925;51.222;5.678;2023-06-14T05:31:38;18.00;87.00
28773;DHT22;15925;51.222;5.678;2023-06-14T05:34:04;18.00;87.20
28773;DHT22;15925;51.222;5.678;2023-06-14T05:36:30;18.00;87.10
28773;DHT22;15925;51.222;5.678;2023-06-14T05:38:56;18.10;87.40
28773;DHT22;15925;51.222;5.678;2023-06-14T05:41:25;18.10;87.30
28773;DHT22;15925;51.222;5.678;2023-06-14T05:43:52;18.10;87.50
28773;DHT22;15925;51.222;5.678;2023-06-14T05:46:18;18.20;87.70
28773;DHT22;15925;51.222;5.678;2023-06-14T05:48:48;18.20;90.00
28773;DHT22;15925;51.222;5.678;2023-06-14T05:51:14;18.20;87.70
28773;DHT22;15925;51.222;5.678;2023-06-14T05:53:40;18.20;87.60
28773;DHT22;15925;51.222;5.678;2023-06-14T05:56:06;18.30;87.60
28773;DHT22;15925;51.222;5.678;2023-06-14T05:58:31;18.30;87.60
28773;DHT22;15925;51.222;5.678;2023-06-14T06:00:57;18.40;87.80
28773;DHT22;15925;51.222;5.678;2023-06-14T06:03:23;18.40;87.70
28773;DHT22;15925;51.222;5.678;2023-06-14T06:05:49;18.50;88.00
28773;DHT22;15925;51.222;5.678;2023-06-14T06:08:15;18.50;88.10
28773;DHT22;15925;51.222;5.678;2023-06-14T06:10:42;18.60;88.40
28773;DHT22;15925;51.222;5.678;2023-06-14T06:13:08;18.60;88.20
28773;DHT22;15925;51.222;5.678;2023-06-14T06:15:34;18.60;90.00
28773;DHT22;15925;51.222;5.678;2023-06-14T06:18:00;18.70;87.80
28773;DHT22;15925;51.222;5.678;2023-06-14T06:20:26;18.80;89.80
28773;DHT22;15925;51.222;5.678;2023-06-14T06:22:54;18.90;87.70
28773;DHT22;15925;51.222;5.678;2023-06-14T06:25:20;18.90;87.10
28773;DHT22;15925;51.222;5.678;2023-06-14T06:27:46;19.00;87.20
28773;DHT22;15925;51.222;5.678;2023-06-14T06:30:12;19.10;87.30
28773;DHT22;15925;51.222;5.678;2023-06-14T06:32:38;19.20;86.80
28773;DHT22;15925;51.222;5.678;2023-06-14T06:35:04;19.20;86.70
28773;DHT22;15925;51.222;5.678;2023-06-14T06:37:31;19.30;86.70
28773;DHT22;15925;51.222;5.678;2023-06-14T06:39:57;19.40;86.40
28773;DHT22;15925;51.222;5.678;2023-06-14T06:42:24;19.40;86.10
28773;DHT22;15925;51.222;5.678;2023-06-14T06:44:50;19.50;86.10
28773;DHT22;15925;51.222;5.678;2023-06-14T06:47:16;19.60;86.10
28773;DHT22;15925;51.222;5.678;2023-06-14T06:49:42;19.70;86.10
28773;DHT22;15925;51.222;5.678;2023-06-14T06:52:08;19.80;86.10
28773;DHT22;15925;51.222;5.678;2023-06-14T06:54:34;19.90;86.20
28773;DHT22;15925;51.222;5.678;2023-06-14T06:57:00;20.00;85.90
28773;DHT22;15925;51.222;5.678;2023-06-14T06:59:27;20.10;85.60
28773;DHT22;15925;51.222;5.678;2023-06-14T07:01:53;20.20;85.20
28773;DHT22;15925;51.222;5.678;2023-06-14T07:04:19;20.20;85.00
28773;DHT22;15925;51.222;5.678;2023-06-14T07:06:46;20.30;84.50
28773;DHT22;15925;51.222;5.678;2023-06-14T07:09:13;20.40;84.70
28773;DHT22;15925;51.222;5.678;2023-06-14T07:11:41;20.50;84.50
28773;DHT22;15925;51.222;5.678;2023-06-14T07:14:07;20.60;84.00
28773;DHT22;15925;51.222;5.678;2023-06-14T07:16:33;20.70;84.10
28773;DHT22;15925;51.222;5.678;2023-06-14T07:18:59;20.80;84.30
28773;DHT22;15925;51.222;5.678;2023-06-14T07:21:26;20.90;84.10
28773;DHT22;15925;51.222;5.678;2023-06-14T07:23:55;21.00;83.90
28773;DHT22;15925;51.222;5.678;2023-06-14T07:26:21;21.10;83.30
28773;DHT22;15925;51.222;5.678;2023-06-14T07:28:48;21.20;83.10
28773;DHT22;15925;51.222;5.678;2023-06-14T07:31:15;21.20;82.20
28773;DHT22;15925;51.222;5.678;2023-06-14T07:33:41;21.30;82.80
28773;DHT22;15925;51.222;5.678;2023-06-14T07:36:08;21.40;82.60
28773;DHT22;15925;51.222;5.678;2023-06-14T07:38:34;21.50;82.40
28773;DHT22;15925;51.222;5.678;2023-06-14T07:41:00;21.60;82.10
28773;DHT22;15925;51.222;5.678;2023-06-14T07:43:26;21.70;81.90
28773;DHT22;15925;51.222;5.678;2023-06-14T07:45:52;21.80;81.70
28773;DHT22;15925;51.222;5.678;2023-06-14T07:48:18;21.90;81.70
28773;DHT22;15925;51.222;5.678;2023-06-14T07:50:44;22.00;81.70
28773;DHT22;15925;51.222;5.678;2023-06-14T07:53:10;22.10;82.00
28773;DHT22;15925;51.222;5.678;2023-06-14T07:55:36;22.10;80.70
28773;DHT22;15925;51.222;5.678;2023-06-14T07:58:06;22.20;80.80
28773;DHT22;15925;51.222;5.678;2023-06-14T08:00:32;22.30;80.70
28773;DHT22;15925;51.222;5.678;2023-06-14T08:02:58;22.40;80.50
28773;DHT22;15925;51.222;5.678;2023-06-14T08:05:25;22.50;80.00
28773;DHT22;15925;51.222;5.678;2023-06-14T08:07:52;22.50;79.40
28773;DHT22;15925;51.222;5.678;2023-06-14T08:10:18;22.60;79.40
28773;DHT22;15925;51.222;5.678;2023-06-14T08:12:44;22.70;79.40
28773;DHT22;15925;51.222;5.678;2023-06-14T08:15:10;22.80;79.40
28773;DHT22;15925;51.222;5.678;2023-06-14T08:17:36;22.90;79.70
28773;DHT22;15925;51.222;5.678;2023-06-14T08:20:02;23.00;79.40
28773;DHT22;15925;51.222;5.678;2023-06-14T08:22:30;23.00;79.30
28773;DHT22;15925;51.222;5.678;2023-06-14T08:24:58;23.10;79.00
28773;DHT22;15925;51.222;5.678;2023-06-14T08:27:24;23.20;78.30
28773;DHT22;15925;51.222;5.678;2023-06-14T08:29:50;23.30;78.40
28773;DHT22;15925;51.222;5.678;2023-06-14T08:32:16;23.40;78.00
28773;DHT22;15925;51.222;5.678;2023-06-14T08:34:41;23.50;78.30
28773;DHT22;15925;51.222;5.678;2023-06-14T08:37:07;23.50;77.70
28773;DHT22;15925;51.222;5.678;2023-06-14T08:39:33;23.60;77.50
28773;DHT22;15925;51.222;5.678;2023-06-14T08:42:01;23.60;77.20
28773;DHT22;15925;51.222;5.678;2023-06-14T08:44:27;23.70;76.90
28773;DHT22;15925;51.222;5.678;2023-06-14T08:46:58;23.90;77.00
28773;DHT22;15925;51.222;5.678;2023-06-14T08:49:25;23.90;76.10
28773;DHT22;15925;51.222;5.678;2023-06-14T08:51:57;24.00;76.10
28773;DHT22;15925;51.222;5.678;2023-06-14T08:54:23;24.10;75.50
28773;DHT22;15925;51.222;5.678;2023-06-14T08:56:53;24.10;75.20
28773;DHT22;15925;51.222;5.678;2023-06-14T08:59:25;24.10;74.70
28773;DHT22;15925;51.222;5.678;2023-06-14T09:01:52;24.30;74.70
28773;DHT22;15925;51.222;5.678;2023-06-14T09:04:18;24.30;74.50
28773;DHT22;15925;51.222;5.678;2023-06-14T09:06:45;24.40;74.80
28773;DHT22;15925;51.222;5.678;2023-06-14T09:09:11;24.50;74.40
28773;DHT22;15925;51.222;5.678;2023-06-14T09:11:38;24.60;74.40
28773;DHT22;15925;51.222;5.678;2023-06-14T09:14:07;24.60;73.60
28773;DHT22;15925;51.222;5.678;2023-06-14T09:16:33;24.70;73.10
28773;DHT22;15925;51.222;5.678;2023-06-14T09:18:59;24.60;71.80
28773;DHT22;15925;51.222;5.678;2023-06-14T09:21:25;24.60;71.40
28773;DHT22;15925;51.222;5.678;2023-06-14T09:23:51;24.70;71.20
28773;DHT22;15925;51.222;5.678;2023-06-14T09:26:19;24.80;71.40
28773;DHT22;15925;51.222;5.678;2023-06-14T09:28:46;24.90;71.30
28773;DHT22;15925;51.222;5.678;2023-06-14T09:31:13;25.00;69.20
28773;DHT22;15925;51.222;5.678;2023-06-14T09:33:41;25.20;71.00
28773;DHT22;15925;51.222;5.678;2023-06-14T09:36:14;25.20;70.00
28773;DHT22;15925;51.222;5.678;2023-06-14T09:38:41;25.20;68.90
28773;DHT22;15925;51.222;5.678;2023-06-14T09:41:07;25.20;68.60
28773;DHT22;15925;51.222;5.678;2023-06-14T09:43:33;25.20;68.20
28773;DHT22;15925;51.222;5.678;2023-06-14T09:46:00;25.40;68.90
28773;DHT22;15925;51.222;5.678;2023-06-14T09:48:26;25.40;68.50
28773;DHT22;15925;51.222;5.678;2023-06-14T09:50:55;25.50;67.90
28773;DHT22;15925;51.222;5.678;2023-06-14T09:53:24;25.60;67.60
28773;DHT22;15925;51.222;5.678;2023-06-14T09:55:52;25.70;68.10
28773;DHT22;15925;51.222;5.678;2023-06-14T09:58:20;25.70;67.30
28773;DHT22;15925;51.222;5.678;2023-06-14T10:00:50;25.90;67.40
28773;DHT22;15925;51.222;5.678;2023-06-14T10:03:24;25.90;66.80
28773;DHT22;15925;51.222;5.678;2023-06-14T10:05:51;26.00;66.30
28773;DHT22;15925;51.222;5.678;2023-06-14T10:08:18;26.10;65.80
28773;DHT22;15925;51.222;5.678;2023-06-14T10:10:44;26.10;61.20
28773;DHT22;15925;51.222;5.678;2023-06-14T10:13:10;26.20;65.60
28773;DHT22;15925;51.222;5.678;2023-06-14T10:16:05;26.20;65.90
28773;DHT22;15925;51.222;5.678;2023-06-14T10:23:44;26.50;64.90
28773;DHT22;15925;51.222;5.678;2023-06-14T10:26:31;26.50;64.30
28773;DHT22;15925;51.222;5.678;2023-06-14T10:29:01;26.40;62.30
28773;DHT22;15925;51.222;5.678;2023-06-14T10:31:41;26.50;64.50
28773;DHT22;15925;51.222;5.678;2023-06-14T10:34:08;26.50;63.10
28773;DHT22;15925;51.222;5.678;2023-06-14T10:36:34;26.60;63.70
28773;DHT22;15925;51.222;5.678;2023-06-14T10:39:26;26.60;63.20
28773;DHT22;15925;51.222;5.678;2023-06-14T10:41:54;26.50;60.40
28773;DHT22;15925;51.222;5.678;2023-06-14T10:46:47;26.50;62.80
28773;DHT22;15925;51.222;5.678;2023-06-14T10:49:16;26.40;62.60
28773;DHT22;15925;51.222;5.678;2023-06-14T10:51:52;26.50;62.70
28773;DHT22;15925;51.222;5.678;2023-06-14T10:54:21;26.60;62.20
28773;DHT22;15925;51.222;5.678;2023-06-14T10:56:52;26.60;61.90
28773;DHT22;15925;51.222;5.678;2023-06-14T10:59:19;26.50;62.10
28773;DHT22;15925;51.222;5.678;2023-06-14T11:04:53;26.40;60.40
28773;DHT22;15925;51.222;5.678;2023-06-14T11:12:52;26.50;60.50
28773;DHT22;15925;51.222;5.678;2023-06-14T11:15:19;26.50;61.60
28773;DHT22;15925;51.222;5.678;2023-06-14T11:17:51;26.40;61.50
28773;DHT22;15925;51.222;5.678;2023-06-14T11:20:19;26.30;60.80
28773;DHT22;15925;51.222;5.678;2023-06-14T11:22:45;26.50;61.30
28773;DHT22;15925;51.222;5.678;2023-06-14T11:25:11;26.40;59.00
28773;DHT22;15925;51.222;5.678;2023-06-14T11:27:37;26.50;61.30
28773;DHT22;15925;51.222;5.678;2023-06-14T11:30:06;26.60;61.90
28773;DHT22;15925;51.222;5.678;2023-06-14T11:32:32;26.70;62.20
28773;DHT22;15925;51.222;5.678;2023-06-14T11:34:58;26.90;62.30
28773;DHT22;15925;51.222;5.678;2023-06-14T11:37:27;26.90;62.20
28773;DHT22;15925;51.222;5.678;2023-06-14T11:39:57;27.00;62.30
28773;DHT22;15925;51.222;5.678;2023-06-14T11:42:28;27.00;62.20
28773;DHT22;15925;51.222;5.678;2023-06-14T11:44:54;27.10;62.40
28773;DHT22;15925;51.222;5.678;2023-06-14T11:47:21;27.20;62.40
28773;DHT22;15925;51.222;5.678;2023-06-14T11:49:47;27.20;62.10
28773;DHT22;15925;51.222;5.678;2023-06-14T11:52:13;27.30;62.50
28773;DHT22;15925;51.222;5.678;2023-06-14T11:54:40;27.30;62.50
28773;DHT22;15925;51.222;5.678;2023-06-14T11:57:07;27.10;62.70
28773;DHT22;15925;51.222;5.678;2023-06-14T11:59:40;27.20;62.70
28773;DHT22;15925;51.222;5.678;2023-06-14T12:02:07;27.20;62.70
28773;DHT22;15925;51.222;5.678;2023-06-14T12:04:33;26.90;62.40
28773;DHT22;15925;51.222;5.678;2023-06-14T12:07:17;27.00;62.80
28773;DHT22;15925;51.222;5.678;2023-06-14T12:12:26;27.20;63.60
28773;DHT22;15925;51.222;5.678;2023-06-14T12:14:54;27.10;63.20
28773;DHT22;15925;51.222;5.678;2023-06-14T12:17:22;27.10;62.80
28773;DHT22;15925;51.222;5.678;2023-06-14T12:19:49;27.10;62.50
28773;DHT22;15925;51.222;5.678;2023-06-14T12:22:16;27.20;63.10
28773;DHT22;15925;51.222;5.678;2023-06-14T12:24:46;27.30;62.60
28773;DHT22;15925;51.222;5.678;2023-06-14T12:27:12;27.20;62.20
28773;DHT22;15925;51.222;5.678;2023-06-14T12:29:42;27.10;62.10
28773;DHT22;15925;51.222;5.678;2023-06-14T12:32:11;27.30;62.40
28773;DHT22;15925;51.222;5.678;2023-06-14T12:34:37;27.40;62.40
28773;DHT22;15925;51.222;5.678;2023-06-14T12:37:03;27.50;62.60
28773;DHT22;15925;51.222;5.678;2023-06-14T12:39:30;27.40;60.90
28773;DHT22;15925;51.222;5.678;2023-06-14T12:41:57;27.20;61.00
28773;DHT22;15925;51.222;5.678;2023-06-14T12:44:23;27.20;61.20
28773;DHT22;15925;51.222;5.678;2023-06-14T12:46:49;27.30;61.90
28773;DHT22;15925;51.222;5.678;2023-06-14T12:49:17;27.30;61.20
28773;DHT22;15925;51.222;5.678;2023-06-14T12:51:43;27.40;61.20
28773;DHT22;15925;51.222;5.678;2023-06-14T12:54:09;27.50;61.30
28773;DHT22;15925;51.222;5.678;2023-06-14T12:56:35;27.50;61.20
28773;DHT22;15925;51.222;5.678;2023-06-14T12:59:01;27.60;60.90
28773;DHT22;15925;51.222;5.678;2023-06-14T13:01:26;27.50;60.80
28773;DHT22;15925;51.222;5.678;2023-06-14T13:03:52;27.50;60.50
28773;DHT22;15925;51.222;5.678;2023-06-14T13:06:22;27.60;60.40
28773;DHT22;15925;51.222;5.678;2023-06-14T13:08:48;27.60;60.00
28773;DHT22;15925;51.222;5.678;2023-06-14T13:11:14;27.60;60.30
28773;DHT22;15925;51.222;5.678;2023-06-14T13:13:40;27.80;60.10
28773;DHT22;15925;51.222;5.678;2023-06-14T13:16:06;27.80;60.20
28773;DHT22;15925;51.222;5.678;2023-06-14T13:18:32;27.90;60.00
28773;DHT22;15925;51.222;5.678;2023-06-14T13:20:57;28.00;60.00
28773;DHT22;15925;51.222;5.678;2023-06-14T13:23:23;27.90;59.90
28773;DHT22;15925;51.222;5.678;2023-06-14T13:25:49;27.70;59.80
28773;DHT22;15925;51.222;5.678;2023-06-14T13:28:17;27.60;59.70
28773;DHT22;15925;51.222;5.678;2023-06-14T13:30:43;27.70;59.70
28773;DHT22;15925;51.222;5.678;2023-06-14T13:33:09;27.70;59.70
28773;DHT22;15925;51.222;5.678;2023-06-14T13:35:35;27.80;59.80
28773;DHT22;15925;51.222;5.678;2023-06-14T13:38:01;27.80;59.90
28773;DHT22;15925;51.222;5.678;2023-06-14T13:40:27;27.80;59.50
28773;DHT22;15925;51.222;5.678;2023-06-14T13:42:53;27.80;59.40
28773;DHT22;15925;51.222;5.678;2023-06-14T13:45:18;27.80;59.50
28773;DHT22;15925;51.222;5.678;2023-06-14T13:47:44;27.90;59.50
28773;DHT22;15925;51.222;5.678;2023-06-14T13:50:10;27.90;59.50
28773;DHT22;15925;51.222;5.678;2023-06-14T13:52:36;28.00;59.30
28773;DHT22;15925;51.222;5.678;2023-06-14T13:55:02;28.10;59.30
28773;DHT22;15925;51.222;5.678;2023-06-14T13:57:28;28.00;59.10
28773;DHT22;15925;51.222;5.678;2023-06-14T13:59:54;28.10;59.30
28773;DHT22;15925;51.222;5.678;2023-06-14T14:02:21;27.90;59.10
28773;DHT22;15925;51.222;5.678;2023-06-14T14:04:47;27.80;59.40
28773;DHT22;15925;51.222;5.678;2023-06-14T14:07:19;27.80;59.30
28773;DHT22;15925;51.222;5.678;2023-06-14T14:09:46;27.90;59.50
28773;DHT22;15925;51.222;5.678;2023-06-14T14:12:13;27.90;58.80
28773;DHT22;15925;51.222;5.678;2023-06-14T14:14:40;27.80;59.00
28773;DHT22;15925;51.222;5.678;2023-06-14T14:17:06;27.90;59.00
28773;DHT22;15925;51.222;5.678;2023-06-14T14:19:32;27.90;59.30
28773;DHT22;15925;51.222;5.678;2023-06-14T14:21:58;28.10;59.60
28773;DHT22;15925;51.222;5.678;2023-06-14T14:24:24;28.20;59.50
28773;DHT22;15925;51.222;5.678;2023-06-14T14:26:51;28.20;59.40
28773;DHT22;15925;51.222;5.678;2023-06-14T14:29:19;28.40;59.60
28773;DHT22;15925;51.222;5.678;2023-06-14T14:31:45;28.30;59.00
28773;DHT22;15925;51.222;5.678;2023-06-14T14:34:11;28.40;59.40
28773;DHT22;15925;51.222;5.678;2023-06-14T14:36:37;28.50;58.90
28773;DHT22;15925;51.222;5.678;2023-06-14T14:39:07;28.50;58.60
28773;DHT22;15925;51.222;5.678;2023-06-14T14:41:32;28.40;58.40
28773;DHT22;15925;51.222;5.678;2023-06-14T14:43:58;28.60;58.50
28773;DHT22;15925;51.222;5.678;2023-06-14T14:46:26;28.70;58.70
28773;DHT22;15925;51.222;5.678;2023-06-14T14:48:52;28.70;58.60
28773;DHT22;15925;51.222;5.678;2023-06-14T14:51:18;28.70;58.70
28773;DHT22;15925;51.222;5.678;2023-06-14T14:53:44;28.70;58.40
28773;DHT22;15925;51.222;5.678;2023-06-14T14:56:10;28.60;58.50
28773;DHT22;15925;51.222;5.678;2023-06-14T14:58:37;28.60;58.10
28773;DHT22;15925;51.222;5.678;2023-06-14T15:01:03;28.60;58.20
28773;DHT22;15925;51.222;5.678;2023-06-14T15:03:31;28.70;58.40
28773;DHT22;15925;51.222;5.678;2023-06-14T15:05:57;28.60;58.30
28773;DHT22;15925;51.222;5.678;2023-06-14T15:08:22;28.70;58.10
28773;DHT22;15925;51.222;5.678;2023-06-14T15:10:48;28.70;57.80
28773;DHT22;15925;51.222;5.678;2023-06-14T15:13:14;28.70;57.30
28773;DHT22;15925;51.222;5.678;2023-06-14T15:15:40;28.70;57.60
28773;DHT22;15925;51.222;5.678;2023-06-14T15:18:06;28.60;57.20
28773;DHT22;15925;51.222;5.678;2023-06-14T15:20:32;28.60;57.30
28773;DHT22;15925;51.222;5.678;2023-06-14T15:22:58;28.50;57.30
28773;DHT22;15925;51.222;5.678;2023-06-14T15:25:29;28.40;57.10
28773;DHT22;15925;51.222;5.678;2023-06-14T15:27:55;28.40;57.50
28773;DHT22;15925;51.222;5.678;2023-06-14T15:30:22;28.40;57.60
28773;DHT22;15925;51.222;5.678;2023-06-14T15:32:48;28.30;57.20
28773;DHT22;15925;51.222;5.678;2023-06-14T15:35:16;28.40;57.20
28773;DHT22;15925;51.222;5.678;2023-06-14T15:37:42;28.30;57.30
28773;DHT22;15925;51.222;5.678;2023-06-14T15:40:08;28.30;57.20
28773;DHT22;15925;51.222;5.678;2023-06-14T15:42:34;28.30;57.10
28773;DHT22;15925;51.222;5.678;2023-06-14T15:45:00;28.30;57.10
28773;DHT22;15925;51.222;5.678;2023-06-14T15:47:25;28.40;57.40
28773;DHT22;15925;51.222;5.678;2023-06-14T15:49:51;28.40;57.40
28773;DHT22;15925;51.222;5.678;2023-06-14T15:52:17;28.30;57.00